Seaexpressii — HO4619 — position and weather

sailwx.info

Track history (hours):
 
Tides and Currents Weather Stations Pressure Air Temp Water Temp Dewpoint Dewpoint Depression Visibility Wind Speed Wind Dir Waves Ship Positions

Seaexpressii

Last reported at 2014-Jul-19 21:31 UTC. Time now 2014-Jul-23 03:22 UTC.
Position N 25°59' W 079°41'.

Length 37 m; draft 2 m.

Type: Ship. MMSI: 356449000.

Date/timePositionNaut miles runAvg speedWind from/ knotsBaromVisibWave heightAir tempDewpointWater temp
2014-Jul-19 21:31N 25°59' W 079°41'8 8.5
2014-Jul-19 20:33N 26°01' W 079°49'9 8.5
2014-Jul-19 19:33N 26°04' W 079°58'8 7.7
2014-Jul-19 18:33N 26°04' W 080°07'1 1.0
2014-Jul-19 17:33N 26°04' W 080°08'0 0.0
2014-Jul-19 16:31N 26°04' W 080°08'0 0.0
2014-Jul-19 15:33N 26°04' W 080°08'0 0.0
2014-Jul-19 14:33N 26°04' W 080°08'0 0.0
2014-Jul-19 13:33N 26°04' W 080°08'0 0.0
2014-Jul-19 12:33N 26°04' W 080°08'4 4.3
2014-Jul-19 11:33N 26°05' W 080°03'1110.7
2014-Jul-19 10:33N 26°02' W 079°52'1111.0
2014-Jul-19 09:33N 25°59' W 079°40'20 0.4
2014-Jul-17 07:17N 26°16' W 079°30'6 8.6
2014-Jul-17 06:33N 26°15' W 079°36'9 9.2
2014-Jul-17 05:33N 26°12' W 079°46'10 9.5
2014-Jul-17 04:33N 26°09' W 079°56'1010.0
2014-Jul-17 03:33N 26°06' W 080°07'2 2.1
2014-Jul-17 02:33N 26°04' W 080°08'0 0.0
2014-Jul-17 01:33N 26°04' W 080°08'0 0.0
2014-Jul-17 00:34N 26°04' W 080°08'0 0.0
2014-Jul-16 23:34N 26°04' W 080°08'0 0.0
2014-Jul-16 22:33N 26°04' W 080°08'0 0.0
2014-Jul-16 21:34N 26°04' W 080°08'0 0.0
2014-Jul-16 20:33N 26°04' W 080°08'6 6.3
2014-Jul-16 19:33N 26°06' W 080°01'10 9.8
2014-Jul-16 18:33N 26°05' W 079°50'9 8.8
2014-Jul-16 17:33N 26°05' W 079°40'9 8.9
2014-Jul-16 16:33N 26°05' W 079°31'11 1.0
2014-Jul-16 05:27N 26°16' W 079°32'1111.9
2014-Jul-16 04:33N 26°12' W 079°43'1211.9
2014-Jul-16 03:33N 26°08' W 079°55'1110.7
2014-Jul-16 02:33N 26°05' W 080°07'2 1.9
2014-Jul-16 01:33N 26°04' W 080°08'0 0.0
2014-Jul-16 00:33N 26°04' W 080°08'0 0.0
2014-Jul-15 23:33N 26°04' W 080°08'0 0.0
2014-Jul-15 22:33N 26°04' W 080°08'0 0.0
2014-Jul-15 21:34N 26°04' W 080°08'0 0.0
2014-Jul-15 20:33N 26°04' W 080°08'0 0.0
2014-Jul-15 19:34N 26°04' W 080°08'0 0.0
2014-Jul-15 18:34N 26°04' W 080°08'0 0.5
2014-Jul-15 17:34N 26°04' W 080°07'7 6.8
2014-Jul-15 16:34N 26°04' W 079°60'1110.8
2014-Jul-15 15:33N 26°01' W 079°48'1010.2
2014-Jul-15 14:33N 25°58' W 079°37'  
2014-Jul-12 19:32N 26°05' W 079°36'9 9.6
2014-Jul-12 18:33N 26°06' W 079°47'10 9.7
2014-Jul-12 17:33N 26°05' W 079°58'8 8.3
2014-Jul-12 16:33N 26°04' W 080°07'1 1.2
2014-Jul-12 15:33N 26°04' W 080°08'0 0.0
2014-Jul-12 14:33N 26°04' W 080°08'0 0.0
2014-Jul-12 13:33N 26°04' W 080°08'0 0.0
2014-Jul-12 12:33N 26°04' W 080°08'2 1.8
2014-Jul-12 11:33N 26°05' W 080°07'8 7.6
2014-Jul-12 10:33N 26°02' W 079°59'10 9.8
2014-Jul-12 09:33N 25°58' W 079°49'10 9.6
2014-Jul-12 08:33N 25°53' W 079°40'2 0.1
2014-Jul-11 08:30N 25°54' W 079°42'7 7.6
2014-Jul-11 07:33N 25°57' W 079°49'8 8.2
2014-Jul-11 06:33N 26°01' W 079°57'9 8.7
2014-Jul-11 05:33N 26°06' W 080°05'3 3.2
2014-Jul-11 04:33N 26°04' W 080°08'0 0.0
2014-Jul-11 03:33N 26°04' W 080°08'0 0.0
2014-Jul-11 02:33N 26°04' W 080°08'0 0.0
2014-Jul-11 01:33N 26°04' W 080°08'0 0.0
2014-Jul-11 00:33N 26°04' W 080°08'0 0.0
2014-Jul-10 23:33N 26°04' W 080°08'0 0.0
2014-Jul-10 22:33N 26°04' W 080°08'0 0.0
2014-Jul-10 21:33N 26°04' W 080°08'0 0.0
2014-Jul-10 20:33N 26°04' W 080°08'0 0.0
2014-Jul-10 19:33N 26°04' W 080°08'5 4.8
2014-Jul-10 18:33N 26°05' W 080°03'1010.5
2014-Jul-10 17:33N 26°02' W 079°51'1110.7
2014-Jul-10 16:33N 25°59' W 079°40'  
Track history (hours):
 
Tides and Currents Weather Stations Pressure Air Temp Water Temp Dewpoint Dewpoint Depression Visibility Wind Speed Wind Dir Waves Ship Positions

Seaexpressii

Last reported at 2014-Jul-19 21:31 UTC. Time now 2014-Jul-23 03:22 UTC.
Position N 25°59' W 079°41'.

Length 37 m; draft 2 m.

Type: Ship. MMSI: 356449000.

Date/timePositionNaut miles runAvg speedWind from/ knotsBaromVisibWave heightAir tempDewpointWater temp
2014-Jul-19 21:31N 25°59' W 079°41'8 8.5
2014-Jul-19 20:33N 26°01' W 079°49'9 8.5
2014-Jul-19 19:33N 26°04' W 079°58'8 7.7
2014-Jul-19 18:33N 26°04' W 080°07'1 1.0
2014-Jul-19 17:33N 26°04' W 080°08'0 0.0
2014-Jul-19 16:31N 26°04' W 080°08'0 0.0
2014-Jul-19 15:33N 26°04' W 080°08'0 0.0
2014-Jul-19 14:33N 26°04' W 080°08'0 0.0
2014-Jul-19 13:33N 26°04' W 080°08'0 0.0
2014-Jul-19 12:33N 26°04' W 080°08'4 4.3
2014-Jul-19 11:33N 26°05' W 080°03'1110.7
2014-Jul-19 10:33N 26°02' W 079°52'1111.0
2014-Jul-19 09:33N 25°59' W 079°40'20 0.4
2014-Jul-17 07:17N 26°16' W 079°30'6 8.6
2014-Jul-17 06:33N 26°15' W 079°36'9 9.2
2014-Jul-17 05:33N 26°12' W 079°46'10 9.5
2014-Jul-17 04:33N 26°09' W 079°56'1010.0
2014-Jul-17 03:33N 26°06' W 080°07'2 2.1
2014-Jul-17 02:33N 26°04' W 080°08'0 0.0
2014-Jul-17 01:33N 26°04' W 080°08'0 0.0
2014-Jul-17 00:34N 26°04' W 080°08'0 0.0
2014-Jul-16 23:34N 26°04' W 080°08'0 0.0
2014-Jul-16 22:33N 26°04' W 080°08'0 0.0
2014-Jul-16 21:34N 26°04' W 080°08'0 0.0
2014-Jul-16 20:33N 26°04' W 080°08'6 6.3
2014-Jul-16 19:33N 26°06' W 080°01'10 9.8
2014-Jul-16 18:33N 26°05' W 079°50'9 8.8
2014-Jul-16 17:33N 26°05' W 079°40'9 8.9
2014-Jul-16 16:33N 26°05' W 079°31'11 1.0
2014-Jul-16 05:27N 26°16' W 079°32'1111.9
2014-Jul-16 04:33N 26°12' W 079°43'1211.9
2014-Jul-16 03:33N 26°08' W 079°55'1110.7
2014-Jul-16 02:33N 26°05' W 080°07'2 1.9
2014-Jul-16 01:33N 26°04' W 080°08'0 0.0
2014-Jul-16 00:33N 26°04' W 080°08'0 0.0
2014-Jul-15 23:33N 26°04' W 080°08'0 0.0
2014-Jul-15 22:33N 26°04' W 080°08'0 0.0
2014-Jul-15 21:34N 26°04' W 080°08'0 0.0
2014-Jul-15 20:33N 26°04' W 080°08'0 0.0
2014-Jul-15 19:34N 26°04' W 080°08'0 0.0
2014-Jul-15 18:34N 26°04' W 080°08'0 0.5
2014-Jul-15 17:34N 26°04' W 080°07'7 6.8
2014-Jul-15 16:34N 26°04' W 079°60'1110.8
2014-Jul-15 15:33N 26°01' W 079°48'1010.2
2014-Jul-15 14:33N 25°58' W 079°37'  
2014-Jul-12 19:32N 26°05' W 079°36'9 9.6
2014-Jul-12 18:33N 26°06' W 079°47'10 9.7
2014-Jul-12 17:33N 26°05' W 079°58'8 8.3
2014-Jul-12 16:33N 26°04' W 080°07'1 1.2
2014-Jul-12 15:33N 26°04' W 080°08'0 0.0
2014-Jul-12 14:33N 26°04' W 080°08'0 0.0
2014-Jul-12 13:33N 26°04' W 080°08'0 0.0
2014-Jul-12 12:33N 26°04' W 080°08'2 1.8
2014-Jul-12 11:33N 26°05' W 080°07'8 7.6
2014-Jul-12 10:33N 26°02' W 079°59'10 9.8
2014-Jul-12 09:33N 25°58' W 079°49'10 9.6
2014-Jul-12 08:33N 25°53' W 079°40'2 0.1
2014-Jul-11 08:30N 25°54' W 079°42'7 7.6
2014-Jul-11 07:33N 25°57' W 079°49'8 8.2
2014-Jul-11 06:33N 26°01' W 079°57'9 8.7
2014-Jul-11 05:33N 26°06' W 080°05'3 3.2
2014-Jul-11 04:33N 26°04' W 080°08'0 0.0
2014-Jul-11 03:33N 26°04' W 080°08'0 0.0
2014-Jul-11 02:33N 26°04' W 080°08'0 0.0
2014-Jul-11 01:33N 26°04' W 080°08'0 0.0
2014-Jul-11 00:33N 26°04' W 080°08'0 0.0
2014-Jul-10 23:33N 26°04' W 080°08'0 0.0
2014-Jul-10 22:33N 26°04' W 080°08'0 0.0
2014-Jul-10 21:33N 26°04' W 080°08'0 0.0
2014-Jul-10 20:33N 26°04' W 080°08'0 0.0
2014-Jul-10 19:33N 26°04' W 080°08'5 4.8
2014-Jul-10 18:33N 26°05' W 080°03'1010.5
2014-Jul-10 17:33N 26°02' W 079°51'1110.7
2014-Jul-10 16:33N 25°59' W 079°40'  

Dump ship's entire track history